createdAt,value
2023-03-07T00:04:53.812Z,99919.22
2023-03-07T00:10:15.919Z,99922.56
2023-03-07T00:15:39.143Z,99915.06
2023-03-07T00:21:03.483Z,99921.69
2023-03-07T00:26:27.813Z,99912.28
2023-03-07T00:31:49.823Z,99911.72
2023-03-07T00:37:11.519Z,99905.06
2023-03-07T00:42:33.243Z,99906.72
2023-03-07T00:47:56.350Z,99906.13
2023-03-07T00:53:19.404Z,99911.94
2023-03-07T00:58:41.419Z,99902.25
2023-03-07T01:04:03.594Z,99905.56
2023-03-07T01:09:25.382Z,99904.19
2023-03-07T01:14:51.180Z,99889.50
2023-03-07T01:20:13.230Z,99891.16
2023-03-07T01:25:42.158Z,99881.16
2023-03-07T01:31:03.940Z,99875.06
2023-03-07T01:36:31.192Z,99870.91
2023-03-07T01:41:52.996Z,99862.03
2023-03-07T01:47:14.659Z,99856.19
2023-03-07T01:52:39.992Z,99852.06
2023-03-07T01:58:08.986Z,99844.28
2023-03-07T02:03:37.545Z,99839.03
2023-03-07T02:09:00.813Z,99824.59
2023-03-07T02:14:22.826Z,99810.19
2023-03-07T02:20:08.691Z,99811.28
2023-03-07T02:25:41.196Z,99795.78
2023-03-07T02:31:07.087Z,99789.66
2023-03-07T02:36:32.701Z,99793.81
2023-03-07T02:41:55.446Z,99784.69
2023-03-07T02:47:17.199Z,99791.03
2023-03-07T02:52:39.454Z,99775.50
2023-03-07T02:58:01.300Z,99775.81
2023-03-07T03:03:23.221Z,99765.25
2023-03-07T03:08:45.029Z,99758.06
2023-03-07T03:14:06.933Z,99758.63
2023-03-07T03:19:29.969Z,99753.09
2023-03-07T03:24:51.922Z,99749.75
2023-03-07T03:30:14.437Z,99750.00
2023-03-07T03:35:36.145Z,99751.97
2023-03-07T03:40:57.870Z,99745.88
2023-03-07T03:46:20.579Z,99746.97
2023-03-07T03:51:42.670Z,99731.75
2023-03-07T03:57:04.433Z,99730.06
2023-03-07T04:02:26.889Z,99728.41
2023-03-07T04:07:50.564Z,99723.16
2023-03-07T04:13:13.769Z,99715.94
2023-03-07T04:18:36.370Z,99718.72
2023-03-07T04:23:58.632Z,99709.03
2023-03-07T04:29:20.420Z,99697.38
2023-03-07T04:34:42.119Z,99695.69
2023-03-07T04:40:04.180Z,99690.41
2023-03-07T04:45:26.236Z,99684.34
2023-03-07T04:50:52.043Z,99676.28
2023-03-07T04:56:16.422Z,99672.72
2023-03-07T05:01:38.173Z,99670.19
2023-03-07T05:06:59.985Z,99654.97
2023-03-07T05:12:22.511Z,99646.97
2023-03-07T05:17:44.241Z,99645.28
2023-03-07T05:23:05.935Z,99635.56
2023-03-07T05:28:27.693Z,99635.56
2023-03-07T05:33:49.364Z,99635.88
2023-03-07T05:39:11.214Z,99625.09
2023-03-07T05:44:34.153Z,99627.28
2023-03-07T05:49:56.314Z,99622.56
2023-03-07T05:55:18.613Z,99623.13
2023-03-07T06:00:40.402Z,99615.94
2023-03-07T06:06:02.143Z,99612.88
2023-03-07T06:11:23.916Z,99611.22
2023-03-07T06:16:45.611Z,99605.69
2023-03-07T06:22:09.037Z,99608.38
2023-03-07T06:27:37.803Z,99599.72
2023-03-07T06:32:59.623Z,99594.09
2023-03-07T06:38:21.339Z,99595.44
2023-03-07T06:43:43.108Z,99585.47
2023-03-07T06:49:04.898Z,99592.69
2023-03-07T06:54:26.670Z,99591.34
2023-03-07T06:59:48.372Z,99592.75
2023-03-07T07:05:10.069Z,99593.66
2023-03-07T07:10:31.827Z,99594.50
2023-03-07T07:15:53.692Z,99601.72
2023-03-07T07:21:15.491Z,99608.94
2023-03-07T07:26:37.444Z,99628.94
2023-03-07T07:32:00.283Z,99629.78
2023-03-07T07:37:22.176Z,99621.75
2023-03-07T07:42:43.866Z,99631.19
2023-03-07T07:48:05.824Z,99622.06
2023-03-07T07:53:27.602Z,99629.00
2023-03-07T07:58:49.368Z,99634.78
2023-03-07T08:04:11.428Z,99649.50
2023-03-07T08:09:33.243Z,99663.91
2023-03-07T08:14:54.947Z,99645.03
2023-03-07T08:20:16.971Z,99655.84
2023-03-07T08:25:39.029Z,99663.59
2023-03-07T08:31:08.414Z,99665.50
2023-03-07T08:36:30.229Z,99690.13
2023-03-07T08:41:52.148Z,99681.47
2023-03-07T08:47:13.905Z,99690.78
2023-03-07T08:52:35.560Z,99694.09
2023-03-07T08:57:57.418Z,99690.47
2023-03-07T09:03:19.125Z,99685.47
2023-03-07T09:08:44.329Z,99695.22
2023-03-07T09:14:06.181Z,99697.75
2023-03-07T09:19:27.969Z,99703.88
2023-03-07T09:24:49.625Z,99702.00
2023-03-07T09:30:12.911Z,99696.19
2023-03-07T09:35:34.670Z,99697.59
2023-03-07T09:41:04.929Z,99700.38
2023-03-07T09:46:42.625Z,99690.97
2023-03-07T09:52:14.259Z,99695.72
2023-03-07T09:57:57.379Z,99699.31
2023-03-07T10:03:41.691Z,99692.41
2023-03-07T10:09:05.573Z,99692.09
2023-03-07T10:14:39.215Z,99698.50
2023-03-07T10:20:24.889Z,99694.34
2023-03-07T10:25:56.971Z,99694.34
2023-03-07T10:31:39.552Z,99686.03
2023-03-07T10:37:10.942Z,99694.34
2023-03-07T10:42:36.969Z,99691.88
2023-03-07T10:48:08.763Z,99687.16
2023-03-07T10:53:35.169Z,99698.22
2023-03-07T10:59:06.210Z,99703.50
2023-03-07T11:04:30.682Z,99702.09
2023-03-07T11:09:52.369Z,99699.91
2023-03-07T11:15:23.717Z,99702.41
2023-03-07T11:20:50.067Z,99701.00
2023-03-07T11:26:21.820Z,99708.19
2023-03-07T11:31:56.296Z,99716.44
2023-03-07T11:37:29.799Z,99711.59
2023-03-07T11:43:16.671Z,99709.00
2023-03-07T11:48:50.642Z,99709.44
2023-03-07T11:54:37.076Z,99706.66
2023-03-07T12:00:28.164Z,99705.28
2023-03-07T12:06:14.799Z,99709.50
2023-03-07T12:11:39.227Z,99709.00
2023-03-07T12:17:15.823Z,99704.06
2023-03-07T12:22:49.578Z,99706.31
2023-03-07T12:28:21.338Z,99701.63
2023-03-07T12:34:14.252Z,99705.28
2023-03-07T12:39:41.582Z,99693.41
2023-03-07T12:45:21.731Z,99703.16
2023-03-07T12:50:52.196Z,99695.66
2023-03-07T12:56:31.453Z,99692.59
2023-03-07T13:02:01.661Z,99693.16
2023-03-07T13:07:33.969Z,99688.44
2023-03-07T13:12:55.684Z,99687.31
2023-03-07T13:18:30.170Z,99696.97
2023-03-07T13:24:31.823Z,99690.00
2023-03-07T13:30:20.702Z,99701.06
2023-03-07T13:35:48.206Z,99696.91
2023-03-07T13:41:12.089Z,99703.31
2023-03-07T13:46:42.761Z,99702.50
2023-03-07T13:52:33.490Z,99698.66
2023-03-07T13:57:57.129Z,99698.13
2023-03-07T14:03:27.999Z,99695.66
2023-03-07T14:08:51.224Z,99703.44
2023-03-07T14:14:35.267Z,99704.84
2023-03-07T14:20:28.116Z,99710.38
2023-03-07T14:25:54.698Z,99712.63
2023-03-07T14:31:30.393Z,99725.94
2023-03-07T14:37:00.884Z,99733.16
2023-03-07T14:42:32.447Z,99733.44
2023-03-07T14:48:24.067Z,99746.19
2023-03-07T14:53:46.252Z,99747.00
2023-03-07T14:59:12.450Z,99747.00
2023-03-07T15:04:41.432Z,99757.53
2023-03-07T15:10:03.190Z,99760.81
2023-03-07T15:15:25.301Z,99770.66
2023-03-07T15:20:48.141Z,99772.06
2023-03-07T15:26:21.336Z,99770.78
2023-03-07T15:31:51.491Z,99773.94
2023-03-07T15:37:27.174Z,99782.59
2023-03-07T15:42:56.452Z,99787.16
2023-03-07T15:48:34.536Z,99790.88
2023-03-07T15:54:01.184Z,99786.50
2023-03-07T15:59:28.453Z,99799.66
2023-03-07T16:04:50.143Z,99803.34
2023-03-07T16:10:11.890Z,99811.75
2023-03-07T16:15:33.605Z,99804.84
2023-03-07T16:20:55.317Z,99811.25
2023-03-07T16:26:22.804Z,99812.66
2023-03-07T16:31:44.979Z,99821.28
2023-03-07T16:37:07.276Z,99827.69
2023-03-07T16:42:28.939Z,99837.41
2023-03-07T16:47:58.605Z,99840.72
2023-03-07T16:53:20.327Z,99841.59
2023-03-07T16:58:44.296Z,99845.72
2023-03-07T17:04:06.169Z,99860.66
2023-03-07T17:09:28.104Z,99867.88
2023-03-07T17:14:50.015Z,99875.06
2023-03-07T17:20:18.257Z,99888.66
2023-03-07T17:25:40.269Z,99890.00
2023-03-07T17:31:02.062Z,99902.22
2023-03-07T17:36:23.980Z,99916.63
2023-03-07T17:41:46.047Z,99908.34
2023-03-07T17:47:07.860Z,99922.84
2023-03-07T17:52:29.911Z,99932.84
2023-03-07T17:57:52.403Z,99939.47
2023-03-07T18:03:14.107Z,99948.66
2023-03-07T18:08:37.311Z,99946.69
2023-03-07T18:13:59.122Z,99956.41
2023-03-07T18:19:26.781Z,99958.59
2023-03-07T18:24:53.603Z,99975.25
2023-03-07T18:30:16.131Z,99982.78
2023-03-07T18:35:38.081Z,99985.00
2023-03-07T18:41:05.599Z,99989.44
2023-03-07T18:46:31.812Z,99988.91
2023-03-07T18:51:53.499Z,99977.72
2023-03-07T18:57:15.576Z,99981.25
2023-03-07T19:02:38.985Z,99974.16
2023-03-07T19:08:00.653Z,99977.19
2023-03-07T19:13:22.440Z,99985.84
2023-03-07T19:18:44.728Z,99993.09
2023-03-07T19:24:08.089Z,99999.56
2023-03-07T19:29:29.905Z,99997.09
2023-03-07T19:34:51.637Z,100002.94
2023-03-07T19:40:13.853Z,99995.16
2023-03-07T19:45:40.601Z,99994.31
2023-03-07T19:51:03.012Z,99993.69
2023-03-07T19:56:31.916Z,100002.53
2023-03-07T20:01:53.653Z,99990.94
2023-03-07T20:07:16.016Z,99989.59
2023-03-07T20:12:37.747Z,100004.03
2023-03-07T20:17:59.604Z,100008.44
2023-03-07T20:23:21.463Z,99998.91
2023-03-07T20:28:43.456Z,99995.81
2023-03-07T20:34:05.485Z,99994.00
2023-03-07T20:39:27.208Z,99999.59
2023-03-07T20:44:48.932Z,100008.31
2023-03-07T20:50:11.213Z,100014.34
2023-03-07T20:55:33.667Z,100024.00
2023-03-07T21:00:55.981Z,100023.13
2023-03-07T21:06:18.585Z,100027.84
2023-03-07T21:11:45.137Z,100038.56
2023-03-07T21:17:06.980Z,100034.03
2023-03-07T21:22:28.683Z,100039.19
2023-03-07T21:27:50.402Z,100045.44
2023-03-07T21:33:12.185Z,100041.56
2023-03-07T21:38:34.669Z,100039.06
2023-03-07T21:43:57.622Z,100041.34
2023-03-07T21:49:19.422Z,100048.63
2023-03-07T21:54:41.795Z,100047.03
2023-03-07T22:00:06.850Z,100051.78
2023-03-07T22:05:28.572Z,100049.31
2023-03-07T22:10:59.459Z,100044.09
2023-03-07T22:16:22.233Z,100046.88
2023-03-07T22:21:44.020Z,100046.03
2023-03-07T22:27:07.348Z,100044.66
2023-03-07T22:32:29.084Z,100037.22
2023-03-07T22:37:50.839Z,100054.41
2023-03-07T22:43:12.528Z,100033.88
2023-03-07T22:48:34.724Z,100037.22
2023-03-07T22:53:56.506Z,100039.44
2023-03-07T22:59:18.376Z,100037.78
2023-03-07T23:04:40.254Z,100026.06
2023-03-07T23:10:02.080Z,100017.19
2023-03-07T23:15:24.817Z,100022.75
2023-03-07T23:20:46.544Z,100021.66
2023-03-07T23:26:08.529Z,100013.59
2023-03-07T23:31:36.468Z,99995.00
2023-03-07T23:36:58.217Z,99990.53
2023-03-07T23:42:20.297Z,99998.88
2023-03-07T23:47:42.048Z,99988.56
2023-03-07T23:53:03.958Z,99981.94
2023-03-07T23:58:25.651Z,99985.53
